Time;durP1;ratioP1;P1;durP2;ratioP2;P2;SDS_P1;SDS_P2;PMS_P1;PMS_P2;Temp;Humidity;BMP_temperature;BMP_pressure;BME280_temperature;BME280_humidity;BME280_pressure;Samples;Min_cycle;Max_cycle;Signal;HPM_P1;HPM_P2
2023/04/14 00:02:03;;;;;;;;;;;;;;;3.83;100.00;95515.03;5102438;28;20026;-87
2023/04/14 00:04:29;;;;;;;;;;;;;;;3.86;100.00;95503.91;5106937;28;19946;-87
2023/04/14 00:06:57;;;;;;;;;;;;;;;3.92;100.00;95508.41;5107928;28;19927;-87
2023/04/14 00:09:24;;;;;;;;;;;;;;;3.98;100.00;95512.91;5109125;28;19974;-87
2023/04/14 00:11:51;;;;;;;;;;;;;;;4.03;100.00;95511.25;5106864;28;19924;-87
2023/04/14 00:14:18;;;;;;;;;;;;;;;4.00;100.00;95510.84;5108550;28;19924;-87
2023/04/14 00:16:46;;;;;;;;;;;;;;;4.01;100.00;95510.63;5102952;28;19935;-87
2023/04/14 00:19:13;;;;;;;;;;;;;;;4.03;100.00;95505.91;5109909;28;20026;-86
2023/04/14 00:21:40;;;;;;;;;;;;;;;4.01;100.00;95510.63;5113956;28;19924;-86
2023/04/14 00:24:06;;;;;;;;;;;;;;;4.01;100.00;95504.47;5112949;28;19946;-87
2023/04/14 00:26:34;;;;;;;;;;;;;;;4.03;100.00;95505.09;5109839;28;19928;-87
2023/04/14 00:29:00;;;;;;;;;;;;;;;4.03;100.00;95510.44;5113938;28;19938;-87
2023/04/14 00:31:27;;;;;;;;;;;;;;;4.08;100.00;95510.63;5105516;27;19932;-88
2023/04/14 00:33:56;;;;;;;;;;;;;;;4.10;100.00;95513.91;5105896;28;19967;-87
2023/04/14 00:36:23;;;;;;;;;;;;;;;4.08;100.00;95513.31;5107651;28;19924;-87
2023/04/14 00:38:50;;;;;;;;;;;;;;;4.04;100.00;95504.06;5111535;28;20020;-88
2023/04/14 00:41:16;;;;;;;;;;;;;;;4.05;100.00;95508.38;5101127;28;19935;-87
2023/04/14 00:43:44;;;;;;;;;;;;;;;4.13;100.00;95500.13;5108832;28;19976;-87
2023/04/14 00:46:11;;;;;;;;;;;;;;;4.14;100.00;95507.13;5109098;28;19988;-87
2023/04/14 00:48:38;;;;;;;;;;;;;;;4.22;100.00;95508.72;5109591;28;19939;-87
2023/04/14 00:51:06;;;;;;;;;;;;;;;4.22;100.00;95506.88;5102945;28;20022;-87
2023/04/14 00:53:33;;;;;;;;;;;;;;;4.23;100.00;95505.03;5102139;28;19924;-88
2023/04/14 00:56:00;;;;;;;;;;;;;;;4.28;100.00;95502.53;5109619;28;19967;-87
2023/04/14 00:58:27;;;;;;;;;;;;;;;4.25;100.00;95497.63;5100287;28;19977;-87
2023/04/14 01:00:55;;;;;;;;;;;;;;;4.30;100.00;95495.94;5101983;28;19931;-88
2023/04/14 01:03:23;;;;;;;;;;;;;;;4.33;100.00;95500.88;5112848;28;19928;-87
2023/04/14 01:05:50;;;;;;;;;;;;;;;4.34;100.00;95499.81;5114810;28;19928;-87
2023/04/14 01:08:20;;;;;;;;;;;;;;;4.34;100.00;95499.81;5112509;28;19930;-87
2023/04/14 01:10:49;;;;;;;;;;;;;;;4.38;100.00;95502.91;5110948;28;19924;-87
2023/04/14 01:13:21;;;;;;;;;;;;;;;4.39;100.00;95512.56;5112477;27;19990;-87
2023/04/14 01:15:57;;;;;;;;;;;;;;;4.41;100.00;95511.34;5107550;28;19931;-86
2023/04/14 01:18:27;;;;;;;;;;;;;;;4.45;100.00;95504.50;5111973;28;19930;-87
2023/04/14 01:20:59;;;;;;;;;;;;;;;4.47;100.00;95523.03;5113343;28;19928;-87
2023/04/14 01:23:27;;;;;;;;;;;;;;;4.50;100.00;95523.44;5113198;28;19923;-87
2023/04/14 01:26:15;;;;;;;;;;;;;;;4.49;100.00;95527.13;5107657;28;19928;-87
2023/04/14 01:28:49;;;;;;;;;;;;;;;4.47;100.00;95523.84;5107201;28;19977;-86
2023/04/14 01:31:24;;;;;;;;;;;;;;;4.50;100.00;95525.28;5112147;28;19928;-87
2023/04/14 01:33:54;;;;;;;;;;;;;;;4.48;100.00;95520.13;5108289;28;19989;-87
2023/04/14 01:36:26;;;;;;;;;;;;;;;4.49;100.00;95523.63;5112193;28;19923;-87
2023/04/14 01:38:54;;;;;;;;;;;;;;;4.45;100.00;95525.91;5111892;28;19943;-87
2023/04/14 01:41:22;;;;;;;;;;;;;;;4.44;100.00;95521.59;5100163;28;19927;-87
2023/04/14 01:43:51;;;;;;;;;;;;;;;4.47;100.00;95531.03;5109750;28;19931;-87
2023/04/14 01:46:19;;;;;;;;;;;;;;;4.45;100.00;95528.56;5108160;28;19923;-87
2023/04/14 01:48:48;;;;;;;;;;;;;;;4.40;100.00;95517.72;5110942;28;19924;-88
2023/04/14 01:51:18;;;;;;;;;;;;;;;4.50;100.00;95530.63;5107182;28;19924;-87
2023/04/14 01:53:45;;;;;;;;;;;;;;;4.52;100.00;95528.53;5102946;28;19962;-88
2023/04/14 01:56:13;;;;;;;;;;;;;;;4.52;100.00;95518.66;5094726;28;20034;-87
2023/04/14 01:58:42;;;;;;;;;;;;;;;4.56;100.00;95519.06;5109672;28;19942;-88
2023/04/14 02:01:08;;;;;;;;;;;;;;;4.59;100.00;95523.19;5110313;28;19962;-86
2023/04/14 02:03:35;;;;;;;;;;;;;;;4.61;100.00;95513.91;5112491;28;19924;-87
2023/04/14 02:06:06;;;;;;;;;;;;;;;4.65;100.00;95515.13;5113807;28;19923;-88
2023/04/14 02:08:34;;;;;;;;;;;;;;;4.66;100.00;95511.41;5111539;28;20010;-88
2023/04/14 02:11:02;;;;;;;;;;;;;;;4.70;100.00;95519.81;5105941;28;20010;-87
2023/04/14 02:13:32;;;;;;;;;;;;;;;4.71;100.00;95513.44;5119600;27;19928;-87
2023/04/14 02:16:00;;;;;;;;;;;;;;;4.74;100.00;95515.69;5107532;28;19991;-88
2023/04/14 02:18:28;;;;;;;;;;;;;;;4.71;100.00;95508.91;5100105;28;19930;-87
2023/04/14 02:20:56;;;;;;;;;;;;;;;4.70;100.00;95509.94;5106835;28;19924;-87
2023/04/14 02:23:24;;;;;;;;;;;;;;;4.71;100.00;95518.78;5101247;28;19924;-87
2023/04/14 02:25:54;;;;;;;;;;;;;;;4.71;100.00;95513.44;5110784;28;19924;-88
2023/04/14 02:28:22;;;;;;;;;;;;;;;4.70;100.00;95512.63;5107744;28;19924;-88
2023/04/14 02:30:52;;;;;;;;;;;;;;;4.70;100.00;95511.78;5109056;28;19924;-88
2023/04/14 02:33:20;;;;;;;;;;;;;;;4.70;100.00;95517.13;5112313;28;19946;-87
2023/04/14 02:35:48;;;;;;;;;;;;;;;4.68;100.00;95520.03;5109170;28;19930;-87
2023/04/14 02:38:18;;;;;;;;;;;;;;;4.69;100.00;95518.16;5097254;28;19928;-88
2023/04/14 02:40:49;;;;;;;;;;;;;;;4.69;100.00;95523.53;5110586;28;19931;-88
2023/04/14 02:43:18;;;;;;;;;;;;;;;4.68;100.00;95519.22;5105777;28;19924;-88
2023/04/14 02:45:47;;;;;;;;;;;;;;;4.70;100.00;95523.31;5108828;28;19970;-88
2023/04/14 02:48:16;;;;;;;;;;;;;;;4.68;100.00;95521.91;5117613;27;19932;-88
2023/04/14 02:50:44;;;;;;;;;;;;;;;4.69;100.00;95527.00;5105056;28;19924;-87
2023/04/14 02:53:17;;;;;;;;;;;;;;;4.68;100.00;95519.22;5108613;28;20018;-86
2023/04/14 02:55:44;;;;;;;;;;;;;;;4.68;100.00;95514.69;5107651;28;19956;-87
2023/04/14 02:58:13;;;;;;;;;;;;;;;4.70;100.00;95511.78;5111440;28;19931;-88
2023/04/14 03:00:41;;;;;;;;;;;;;;;4.70;100.00;95509.94;5108122;28;19932;-88
2023/04/14 03:03:09;;;;;;;;;;;;;;;4.73;100.00;95506.03;5104145;28;19924;-87
2023/04/14 03:05:39;;;;;;;;;;;;;;;4.74;100.00;95503.16;5107450;28;19935;-87
2023/04/14 03:08:10;;;;;;;;;;;;;;;4.75;100.00;95498.63;5106664;28;19924;-89
2023/04/14 03:10:39;;;;;;;;;;;;;;;4.78;100.00;95500.84;5108221;28;19938;-88
2023/04/14 03:13:06;;;;;;;;;;;;;;;4.79;100.00;95510.50;5106127;28;19945;-88
2023/04/14 03:15:36;;;;;;;;;;;;;;;4.79;100.00;95522.03;5110866;28;20022;-88
2023/04/14 03:18:04;;;;;;;;;;;;;;;4.78;100.00;95532.94;5110154;28;19924;-89
2023/04/14 03:20:31;;;;;;;;;;;;;;;4.78;100.00;95540.97;5107107;28;19928;-87
2023/04/14 03:23:03;;;;;;;;;;;;;;;4.80;100.00;95552.28;5104188;28;19981;-86
2023/04/14 03:25:35;;;;;;;;;;;;;;;4.72;100.00;95573.91;5108835;28;19941;-88
2023/04/14 03:28:04;;;;;;;;;;;;;;;4.69;100.00;95574.31;5108544;28;19928;-87
2023/04/14 03:30:31;;;;;;;;;;;;;;;4.63;100.00;95585.88;5106800;28;19950;-87
2023/04/14 03:33:02;;;;;;;;;;;;;;;4.52;100.00;95593.53;5107880;28;19924;-87
2023/04/14 03:35:29;;;;;;;;;;;;;;;4.41;100.00;95583.50;5108112;28;19931;-87
2023/04/14 03:37:58;;;;;;;;;;;;;;;4.27;100.00;95586.41;5105598;28;20015;-86
2023/04/14 03:40:29;;;;;;;;;;;;;;;4.20;100.00;95581.06;5104384;28;19930;-87
2023/04/14 03:42:58;;;;;;;;;;;;;;;4.12;100.00;95581.31;5107863;28;19931;-87
2023/04/14 03:45:25;;;;;;;;;;;;;;;4.05;100.00;95572.47;5095525;28;19924;-87
2023/04/14 03:47:56;;;;;;;;;;;;;;;4.07;100.00;95584.63;5104969;28;19950;-86
2023/04/14 03:50:25;;;;;;;;;;;;;;;4.10;100.00;95580.69;5110174;28;19923;-87
2023/04/14 03:52:53;;;;;;;;;;;;;;;4.04;100.00;95570.84;5100416;28;19935;-87
2023/04/14 03:55:22;;;;;;;;;;;;;;;3.97;100.00;95570.03;5098558;28;19928;-87
2023/04/14 03:57:50;;;;;;;;;;;;;;;3.95;100.00;95577.44;5108503;28;19932;-87
2023/04/14 04:00:18;;;;;;;;;;;;;;;3.95;100.00;95566.75;5110145;28;19930;-87
2023/04/14 04:02:46;;;;;;;;;;;;;;;3.95;100.00;95567.56;5107476;28;19924;-86
2023/04/14 04:05:13;;;;;;;;;;;;;;;4.00;100.00;95561.59;5103250;28;19979;-86
2023/04/14 04:07:43;;;;;;;;;;;;;;;4.01;100.00;95577.41;5105887;28;19931;-87
2023/04/14 04:10:12;;;;;;;;;;;;;;;4.04;100.00;95576.19;5100590;28;19924;-87
2023/04/14 04:12:41;;;;;;;;;;;;;;;4.11;100.00;95569.78;5106714;28;19924;-86
2023/04/14 04:15:09;;;;;;;;;;;;;;;4.06;100.00;95568.78;5109556;28;19953;-87
2023/04/14 04:17:38;;;;;;;;;;;;;;;4.05;100.00;95570.63;5108676;28;19924;-87
2023/04/14 04:20:07;;;;;;;;;;;;;;;4.06;100.00;95568.78;5107586;28;19931;-87
2023/04/14 04:22:35;;;;;;;;;;;;;;;4.13;100.00;95564.25;5109347;28;19932;-87
2023/04/14 04:25:04;;;;;;;;;;;;;;;4.09;100.00;95576.38;5107563;28;19946;-86
2023/04/14 04:27:34;;;;;;;;;;;;;;;4.09;100.00;95569.19;5104796;28;19949;-87
2023/04/14 04:30:11;;;;;;;;;;;;;;;4.12;100.00;95557.25;5115725;28;19969;-87
2023/04/14 04:32:38;;;;;;;;;;;;;;;4.13;100.00;95569.59;5111156;28;19928;-87
2023/04/14 04:35:06;;;;;;;;;;;;;;;4.10;100.00;95560.13;5109067;28;19946;-87
2023/04/14 04:37:33;;;;;;;;;;;;;;;4.06;100.00;95564.28;5097173;28;19924;-87
2023/04/14 04:40:01;;;;;;;;;;;;;;;4.02;100.00;95562.22;5106432;28;19950;-87
2023/04/14 04:42:30;;;;;;;;;;;;;;;3.98;100.00;95561.00;5111260;28;20014;-87
2023/04/14 04:44:57;;;;;;;;;;;;;;;4.03;100.00;95563.84;5101706;28;19999;-87
2023/04/14 04:47:24;;;;;;;;;;;;;;;4.09;100.00;95565.69;5107030;28;19935;-88
2023/04/14 04:49:51;;;;;;;;;;;;;;;4.13;100.00;95558.91;5106657;28;19924;-88
2023/04/14 04:52:18;;;;;;;;;;;;;;;4.17;100.00;95554.75;5102098;28;19996;-87
2023/04/14 04:54:50;;;;;;;;;;;;;;;4.20;100.00;95559.69;5110627;28;19924;-88
2023/04/14 04:57:17;;;;;;;;;;;;;;;4.29;100.00;95566.47;5110956;28;20724;-88
2023/04/14 04:59:46;;;;;;;;;;;;;;;4.28;100.00;95555.97;5110254;28;19923;-88
2023/04/14 05:02:13;;;;;;;;;;;;;;;4.33;100.00;95559.69;5113315;28;19998;-88
2023/04/14 05:04:39;;;;;;;;;;;;;;;4.34;100.00;95565.84;5106001;28;19924;-88
2023/04/14 05:07:06;;;;;;;;;;;;;;;4.32;100.00;95555.38;5109406;28;19924;-88
2023/04/14 05:09:33;;;;;;;;;;;;;;;4.32;100.00;95551.88;5113765;28;19927;-86
2023/04/14 05:12:00;;;;;;;;;;;;;;;4.32;100.00;95560.72;5103168;28;19927;-89
2023/04/14 05:14:27;;;;;;;;;;;;;;;4.30;100.00;95560.09;5106483;28;19928;-88
2023/04/14 05:16:56;;;;;;;;;;;;;;;4.32;100.00;95563.38;5103879;28;20019;-88
2023/04/14 05:19:23;;;;;;;;;;;;;;;4.36;100.00;95564.59;5110364;28;19968;-88
2023/04/14 05:21:50;;;;;;;;;;;;;;;4.37;100.00;95555.53;5109306;28;19970;-87
2023/04/14 05:24:16;;;;;;;;;;;;;;;4.40;100.00;95562.31;5110931;28;19977;-88
2023/04/14 05:26:43;;;;;;;;;;;;;;;4.41;100.00;95563.97;5106722;28;19931;-88
2023/04/14 05:29:10;;;;;;;;;;;;;;;4.47;100.00;95558.59;5103776;28;19927;-87
2023/04/14 05:31:37;;;;;;;;;;;;;;;4.46;100.00;95564.16;5103002;28;19967;-89
2023/04/14 05:34:05;;;;;;;;;;;;;;;4.47;100.00;95565.78;5111472;28;19924;-88
2023/04/14 05:36:32;;;;;;;;;;;;;;;4.49;100.00;95566.41;5103872;28;19977;-86
2023/04/14 05:38:59;;;;;;;;;;;;;;;4.46;100.00;95564.16;5106828;28;19928;-88
2023/04/14 05:41:26;;;;;;;;;;;;;;;4.52;100.00;95568.63;5101629;28;19953;-87
2023/04/14 05:43:52;;;;;;;;;;;;;;;4.51;100.00;95567.81;5110595;28;19923;-88
2023/04/14 05:46:19;;;;;;;;;;;;;;;4.48;100.00;95576.28;5106293;28;19939;-88
2023/04/14 05:48:46;;;;;;;;;;;;;;;4.42;100.00;95578.97;5110558;28;19928;-87
2023/04/14 05:51:15;;;;;;;;;;;;;;;4.41;100.00;95586.16;5100038;28;19935;-87
2023/04/14 05:53:42;;;;;;;;;;;;;;;4.43;100.00;95586.75;5107245;28;19928;-88
2023/04/14 05:56:10;;;;;;;;;;;;;;;4.42;100.00;95584.31;5109332;28;19928;-88
2023/04/14 05:58:37;;;;;;;;;;;;;;;4.41;100.00;95588.84;5107914;28;19987;-88
2023/04/14 06:01:05;;;;;;;;;;;;;;;4.46;100.00;95596.22;5127611;27;19924;-87
2023/04/14 06:03:34;;;;;;;;;;;;;;;4.53;100.00;95587.13;5122505;27;19969;-88
2023/04/14 06:06:01;;;;;;;;;;;;;;;4.57;100.00;95583.03;5105962;28;19931;-86
2023/04/14 06:08:30;;;;;;;;;;;;;;;4.63;100.00;95581.34;5110995;28;19938;-87
2023/04/14 06:10:56;;;;;;;;;;;;;;;4.68;100.00;95578.06;5119452;27;19931;-88
2023/04/14 06:13:23;;;;;;;;;;;;;;;4.70;100.00;95581.31;5095044;28;19935;-88
2023/04/14 06:15:51;;;;;;;;;;;;;;;4.74;100.00;95582.53;5130005;27;19932;-88
2023/04/14 06:18:18;;;;;;;;;;;;;;;4.81;100.00;95580.66;5109301;28;19924;-87
2023/04/14 06:20:45;;;;;;;;;;;;;;;4.84;100.00;95582.91;5110006;28;19939;-88
2023/04/14 06:23:12;;;;;;;;;;;;;;;4.92;100.00;95580.00;5101067;28;19938;-87
2023/04/14 06:25:40;;;;;;;;;;;;;;;4.95;100.00;95577.69;5110692;28;19924;-88
2023/04/14 06:28:06;;;;;;;;;;;;;;;5.01;100.00;95586.75;5110615;28;19946;-87
2023/04/14 06:30:33;;;;;;;;;;;;;;;4.97;100.00;95582.00;5102151;28;20038;-87
2023/04/14 06:33:02;;;;;;;;;;;;;;;4.98;100.00;95594.34;5107082;28;19924;-88
2023/04/14 06:35:30;;;;;;;;;;;;;;;4.97;100.00;95585.50;5105412;28;19924;-88
2023/04/14 06:37:56;;;;;;;;;;;;;;;5.04;100.00;95583.63;5104984;28;20003;-88
2023/04/14 06:40:23;;;;;;;;;;;;;;;5.06;100.00;95586.91;5107043;28;19931;-87
2023/04/14 06:42:52;;;;;;;;;;;;;;;5.12;100.00;95587.91;5108872;28;19930;-88
2023/04/14 06:45:19;;;;;;;;;;;;;;;5.23;100.00;95603.28;5107674;28;19924;-88
2023/04/14 06:47:46;;;;;;;;;;;;;;;5.26;100.00;95603.69;5110571;28;19938;-87
2023/04/14 06:50:13;;;;;;;;;;;;;;;5.29;100.00;95597.88;5108832;28;19958;-88
2023/04/14 06:52:39;;;;;;;;;;;;;;;5.30;100.00;95596.03;5108138;28;19930;-87
2023/04/14 06:55:07;;;;;;;;;;;;;;;5.31;100.00;95585.09;5108236;28;19949;-87
2023/04/14 06:57:33;;;;;;;;;;;;;;;5.38;100.00;95593.09;5110889;28;20001;-88
2023/04/14 07:00:03;;;;;;;;;;;;;;;5.43;100.00;95587.09;5106809;28;19991;-87
2023/04/14 07:02:29;;;;;;;;;;;;;;;5.48;100.00;95592.63;5101930;28;19931;-87
2023/04/14 07:04:56;;;;;;;;;;;;;;;5.49;100.00;95583.53;5105210;28;19924;-88
2023/04/14 07:07:23;;;;;;;;;;;;;;;5.49;100.00;95580.88;5108697;28;19932;-88
2023/04/14 07:09:50;;;;;;;;;;;;;;;5.53;100.00;95576.72;5110433;28;19975;-88
2023/04/14 07:12:17;;;;;;;;;;;;;;;5.56;100.00;95576.28;5106314;28;19924;-88
2023/04/14 07:14:49;;;;;;;;;;;;;;;5.61;100.00;95579.13;5104263;28;19924;-88
2023/04/14 07:17:18;;;;;;;;;;;;;;;5.68;100.00;95582.59;5109137;28;19930;-88
2023/04/14 07:19:45;;;;;;;;;;;;;;;5.70;100.00;95575.13;5096778;28;19923;-87
2023/04/14 07:22:12;;;;;;;;;;;;;;;5.77;100.00;95578.59;5100718;28;19925;-86
2023/04/14 07:24:41;;;;;;;;;;;;;;;5.80;100.00;95586.16;5109498;28;19938;-88
2023/04/14 07:27:13;;;;;;;;;;;;;;;5.87;100.00;95578.09;5107907;28;19923;-88
2023/04/14 07:29:40;;;;;;;;;;;;;;;5.90;100.00;95577.69;5103491;28;19928;-89
2023/04/14 07:32:10;;;;;;;;;;;;;;;5.85;100.00;95574.81;5098657;28;19924;-87
2023/04/14 07:34:42;;;;;;;;;;;;;;;5.90;100.00;95578.50;5109548;28;19963;-88
2023/04/14 07:37:09;;;;;;;;;;;;;;;5.93;100.00;95578.06;5111714;27;19951;-87
2023/04/14 07:39:36;;;;;;;;;;;;;;;6.01;100.00;95577.78;5103287;28;19963;-85
2023/04/14 07:42:03;;;;;;;;;;;;;;;6.07;100.00;95584.13;5109010;28;19939;-85
2023/04/14 07:44:29;;;;;;;;;;;;;;;6.13;100.00;95588.56;5100346;28;19928;-85
2023/04/14 07:46:56;;;;;;;;;;;;;;;6.20;100.00;95588.53;5097140;28;19983;-85
2023/04/14 07:49:23;;;;;;;;;;;;;;;6.25;100.00;95586.00;5104257;28;19968;-86
2023/04/14 07:51:51;;;;;;;;;;;;;;;6.31;100.00;95591.28;5110075;28;19958;-86
2023/04/14 07:54:18;;;;;;;;;;;;;;;6.32;100.00;95592.13;5102440;28;19924;-88
2023/04/14 07:56:44;;;;;;;;;;;;;;;6.41;100.00;95590.78;5110166;28;19928;-86
2023/04/14 07:59:11;;;;;;;;;;;;;;;6.46;100.00;95593.63;5110142;28;19924;-85
2023/04/14 08:01:39;;;;;;;;;;;;;;;6.52;100.00;95587.38;5110641;28;19968;-85
2023/04/14 08:04:06;;;;;;;;;;;;;;;6.52;100.00;95595.41;5110698;28;19924;-85
2023/04/14 08:06:32;;;;;;;;;;;;;;;6.62;100.00;95593.03;5094018;28;19924;-85
2023/04/14 08:09:00;;;;;;;;;;;;;;;6.71;100.00;95601.59;5103257;28;19923;-85
2023/04/14 08:11:27;;;;;;;;;;;;;;;6.80;100.00;95598.38;5107622;28;19970;-85
2023/04/14 08:13:54;;;;;;;;;;;;;;;6.92;100.00;95603.81;5104326;28;20014;-85
2023/04/14 08:16:21;;;;;;;;;;;;;;;7.06;100.00;95605.25;5100528;28;19924;-85
2023/04/14 08:18:48;;;;;;;;;;;;;;;7.18;100.00;95594.59;5099703;28;19924;-85
2023/04/14 08:21:15;;;;;;;;;;;;;;;7.28;100.00;95608.28;5120527;27;19970;-85
2023/04/14 08:23:42;;;;;;;;;;;;;;;7.34;100.00;95604.69;5099136;28;19927;-84
2023/04/14 08:26:11;;;;;;;;;;;;;;;7.41;100.00;95620.72;5108237;28;20025;-85
2023/04/14 08:28:37;;;;;;;;;;;;;;;7.40;100.00;95616.41;5092949;28;20027;-87
2023/04/14 08:31:05;;;;;;;;;;;;;;;7.45;100.00;95613.84;5110564;28;19924;-86
2023/04/14 08:33:32;;;;;;;;;;;;;;;7.54;100.00;95618.66;5109391;28;19924;-88
2023/04/14 08:35:59;;;;;;;;;;;;;;;7.59;100.00;95612.59;5109323;28;19924;-88
2023/04/14 08:38:26;;;;;;;;;;;;;;;7.61;100.00;95615.88;5110326;28;19924;-89
2023/04/14 08:40:55;;;;;;;;;;;;;;;7.63;100.00;95615.66;5108905;28;19946;-89
2023/04/14 08:43:23;;;;;;;;;;;;;;;7.69;100.00;95612.03;5103644;28;19928;-89
2023/04/14 08:45:50;;;;;;;;;;;;;;;7.79;100.00;95607.75;5100538;28;19924;-88
2023/04/14 08:48:19;;;;;;;;;;;;;;;7.71;100.00;95601.88;5106248;28;19931;-87
2023/04/14 08:50:49;;;;;;;;;;;;;;;7.77;100.00;95617.09;5101108;28;19946;-87
2023/04/14 08:53:16;;;;;;;;;;;;;;;7.98;100.00;95603.94;5112934;28;19927;-87
2023/04/14 08:55:43;;;;;;;;;;;;;;;8.23;100.00;95610.97;5107692;28;19960;-87
2023/04/14 08:58:10;;;;;;;;;;;;;;;8.62;100.00;95609.44;5105642;27;20018;-87
2023/04/14 09:00:38;;;;;;;;;;;;;;;9.01;100.00;95608.69;5111326;28;19977;-87
2023/04/14 09:03:05;;;;;;;;;;;;;;;9.33;100.00;95600.97;5107467;28;19927;-87
2023/04/14 09:05:32;;;;;;;;;;;;;;;9.50;100.00;95595.63;5107780;28;19924;-88
2023/04/14 09:07:59;;;;;;;;;;;;;;;9.69;100.00;95599.75;5105096;28;19932;-87
2023/04/14 09:10:29;;;;;;;;;;;;;;;9.87;100.00;95599.50;5103932;28;19924;-87
2023/04/14 09:12:56;;;;;;;;;;;;;;;10.00;99.42;95584.06;5113872;28;19924;-87
2023/04/14 09:15:26;;;;;;;;;;;;;;;10.19;100.00;95593.59;5101815;28;19946;-88
2023/04/14 09:17:54;;;;;;;;;;;;;;;10.39;95.98;95587.66;5102388;28;19928;-88
2023/04/14 09:20:22;;;;;;;;;;;;;;;10.35;88.96;95590.06;5107499;28;19924;-87
2023/04/14 09:22:51;;;;;;;;;;;;;;;10.38;87.31;95589.53;5105627;28;20027;-87
2023/04/14 09:25:18;;;;;;;;;;;;;;;10.59;89.18;95586.09;5111145;28;20016;-87
2023/04/14 09:27:45;;;;;;;;;;;;;;;10.66;87.77;95583.19;5110702;28;19932;-87
2023/04/14 09:30:12;;;;;;;;;;;;;;;10.79;89.29;95574.75;5107659;28;19935;-87
2023/04/14 09:32:40;;;;;;;;;;;;;;;10.84;84.11;95579.38;5108543;28;19943;-87
2023/04/14 09:35:12;;;;;;;;;;;;;;;10.90;91.76;95578.38;5105486;28;19924;-87
2023/04/14 09:37:43;;;;;;;;;;;;;;;10.88;88.35;95575.13;5112629;28;19924;-85
2023/04/14 09:40:11;;;;;;;;;;;;;;;10.81;86.57;95577.19;5105180;28;20023;-86
2023/04/14 09:42:38;;;;;;;;;;;;;;;10.88;87.06;95575.97;5109585;28;19973;-88
2023/04/14 09:45:07;;;;;;;;;;;;;;;11.01;89.46;95574.75;5109956;28;19927;-86
2023/04/14 09:47:33;;;;;;;;;;;;;;;11.14;90.99;95571.69;5103214;28;19932;-86
2023/04/14 09:50:02;;;;;;;;;;;;;;;11.17;85.79;95573.84;5100345;28;19973;-85
2023/04/14 09:52:39;;;;;;;;;;;;;;;11.27;83.34;95565.88;5102651;28;19971;-85
2023/04/14 09:55:08;;;;;;;;;;;;;;;11.60;85.65;95564.03;5109540;28;19931;-85
2023/04/14 09:57:37;;;;;;;;;;;;;;;11.70;78.16;95559.56;5110794;28;19924;-85
2023/04/14 10:00:17;;;;;;;;;;;;;;;11.55;81.26;95559.41;5108597;28;19973;-85
2023/04/14 10:02:48;;;;;;;;;;;;;;;11.40;82.20;95558.44;5105769;28;19931;-86
2023/04/14 10:05:15;;;;;;;;;;;;;;;11.13;82.42;95556.53;5110274;28;20098;-86
2023/04/14 10:07:43;;;;;;;;;;;;;;;11.17;82.97;95560.34;5104931;28;19924;-85
2023/04/14 10:10:12;;;;;;;;;;;;;;;11.30;81.15;95556.44;5109277;28;19924;-85
2023/04/14 10:12:40;;;;;;;;;;;;;;;11.29;77.19;95555.63;5098234;28;19924;-86
2023/04/14 10:15:08;;;;;;;;;;;;;;;11.33;76.42;95551.34;5097281;28;20252;-85
2023/04/14 10:17:36;;;;;;;;;;;;;;;11.20;75.88;95550.94;5103708;28;20003;-86
2023/04/14 10:20:04;;;;;;;;;;;;;;;11.12;82.03;95548.69;5112151;28;19924;-85
2023/04/14 10:22:30;;;;;;;;;;;;;;;11.30;76.37;95549.16;5102765;28;19953;-85
2023/04/14 10:25:00;;;;;;;;;;;;;;;11.72;75.94;95534.97;5107464;28;19946;-86
2023/04/14 10:27:28;;;;;;;;;;;;;;;11.86;75.56;95538.91;5112580;28;20014;-85
2023/04/14 10:29:55;;;;;;;;;;;;;;;11.84;73.09;95537.50;5106940;28;19938;-86
2023/04/14 10:32:23;;;;;;;;;;;;;;;11.78;70.22;95535.84;5107052;28;19924;-86
2023/04/14 10:34:57;;;;;;;;;;;;;;;11.65;70.77;95532.44;5097826;28;19924;-86
2023/04/14 10:37:24;;;;;;;;;;;;;;;11.63;70.10;95534.63;5126171;27;19923;-86
2023/04/14 10:39:56;;;;;;;;;;;;;;;11.74;66.35;95516.56;5111559;28;19923;-85
2023/04/14 10:42:25;;;;;;;;;;;;;;;11.97;72.59;95508.16;5105747;28;19924;-86
2023/04/14 10:45:05;;;;;;;;;;;;;;;12.09;69.86;95510.66;5095478;28;19931;-86
2023/04/14 10:47:34;;;;;;;;;;;;;;;12.26;64.36;95510.50;5111199;28;19928;-85
2023/04/14 10:50:10;;;;;;;;;;;;;;;12.57;63.43;95498.78;5109701;28;19939;-86
2023/04/14 10:52:38;;;;;;;;;;;;;;;12.81;60.82;95499.97;5112732;28;19924;-86
2023/04/14 10:55:07;;;;;;;;;;;;;;;13.03;62.61;95498.97;5110497;28;19930;-85
2023/04/14 10:57:40;;;;;;;;;;;;;;;13.27;60.57;95488.50;5122065;27;19996;-86
2023/04/14 11:00:23;;;;;;;;;;;;;;;13.46;61.07;95482.28;5101577;28;19932;-85
2023/04/14 11:02:57;;;;;;;;;;;;;;;13.37;58.90;95480.38;5115322;27;19966;-86
2023/04/14 11:05:24;;;;;;;;;;;;;;;13.40;61.57;95475.25;5108041;28;19966;-85
2023/04/14 11:07:54;;;;;;;;;;;;;;;13.49;61.95;95475.53;5104243;28;19923;-86
2023/04/14 11:10:26;;;;;;;;;;;;;;;13.45;60.80;95469.81;5105736;28;19927;-86
2023/04/14 11:13:02;;;;;;;;;;;;;;;13.22;55.23;95462.19;5110331;28;19981;-85
2023/04/14 11:15:59;;;;;;;;;;;;;;;13.39;57.35;95460.06;5097009;28;19924;-85
2023/04/14 11:18:33;;;;;;;;;;;;;;;13.44;55.01;95456.53;5030310;28;19929;-85
2023/04/14 11:21:04;;;;;;;;;;;;;;;13.76;52.08;95456.28;5088704;28;19931;-84
2023/04/14 11:23:32;;;;;;;;;;;;;;;13.90;49.05;95449.22;5105838;28;19927;-85
2023/04/14 11:25:59;;;;;;;;;;;;;;;13.51;53.82;95452.47;5098664;28;19924;-85
2023/04/14 11:28:31;;;;;;;;;;;;;;;13.35;55.61;95448.13;5102245;28;20023;-86
2023/04/14 11:30:58;;;;;;;;;;;;;;;13.48;54.41;95444.06;5103909;28;19938;-86
2023/04/14 11:33:27;;;;;;;;;;;;;;;13.74;53.80;95447.59;5101682;28;19927;-86
2023/04/14 11:35:54;;;;;;;;;;;;;;;13.83;48.68;95446.78;5103418;28;19924;-87
2023/04/14 11:38:22;;;;;;;;;;;;;;;13.93;49.29;95448.69;5109494;28;20019;-85
2023/04/14 11:40:49;;;;;;;;;;;;;;;13.95;47.05;95443.78;5110107;28;19938;-86
2023/04/14 11:43:16;;;;;;;;;;;;;;;14.26;48.58;95437.22;5123951;27;19935;-86
2023/04/14 11:45:45;;;;;;;;;;;;;;;14.51;46.99;95432.81;5106337;28;19928;-86
2023/04/14 11:48:13;;;;;;;;;;;;;;;14.51;48.08;95432.81;5104545;28;19924;-86
2023/04/14 11:50:41;;;;;;;;;;;;;;;14.34;47.74;95420.34;5110293;28;19923;-85
2023/04/14 11:53:08;;;;;;;;;;;;;;;14.60;47.53;95420.31;5107489;28;19931;-86
2023/04/14 11:55:35;;;;;;;;;;;;;;;14.72;44.24;95418.06;5109169;28;19924;-85
2023/04/14 11:58:02;;;;;;;;;;;;;;;14.92;45.94;95409.81;5105974;28;19923;-88
2023/04/14 12:00:29;;;;;;;;;;;;;;;15.15;44.95;95403.69;5103403;28;19945;-87
2023/04/14 12:02:57;;;;;;;;;;;;;;;15.15;45.60;95402.88;5099024;28;20139;-87
2023/04/14 12:05:29;;;;;;;;;;;;;;;15.11;44.48;95396.38;5109417;28;19934;-88
2023/04/14 12:07:58;;;;;;;;;;;;;;;15.27;43.30;95388.94;5096624;28;19924;-87
2023/04/14 12:10:25;;;;;;;;;;;;;;;15.40;42.75;95391.00;5104359;28;19939;-87
2023/04/14 12:12:58;;;;;;;;;;;;;;;15.52;40.20;95386.84;5107617;28;19928;-87
2023/04/14 12:15:25;;;;;;;;;;;;;;;15.47;39.74;95386.06;5108895;28;19967;-88
2023/04/14 12:17:52;;;;;;;;;;;;;;;15.18;39.70;95382.47;5103788;28;19983;-87
2023/04/14 12:20:21;;;;;;;;;;;;;;;14.85;40.47;95370.44;5121074;27;19924;-87
2023/04/14 12:22:49;;;;;;;;;;;;;;;14.20;41.89;95367.75;5110855;28;19931;-87
2023/04/14 12:25:16;;;;;;;;;;;;;;;14.51;42.74;95373.06;5113058;28;19940;-88
2023/04/14 12:27:43;;;;;;;;;;;;;;;14.73;39.80;95355.28;5109058;28;19964;-87
2023/04/14 12:30:10;;;;;;;;;;;;;;;15.12;41.44;95360.78;5109985;28;19987;-88
2023/04/14 12:32:40;;;;;;;;;;;;;;;15.26;39.74;95354.69;5112517;28;19967;-87
2023/04/14 12:35:08;;;;;;;;;;;;;;;15.42;38.33;95350.72;5114709;28;19927;-88
2023/04/14 12:37:37;;;;;;;;;;;;;;;15.68;37.17;95349.44;5110566;28;19928;-88
2023/04/14 12:40:05;;;;;;;;;;;;;;;15.68;37.96;95345.91;5111313;28;19924;-87
2023/04/14 12:42:47;;;;;;;;;;;;;;;15.71;37.08;95339.91;5109642;28;19930;-89
2023/04/14 12:45:15;;;;;;;;;;;;;;;15.71;37.31;95338.00;5106966;28;19928;-86
2023/04/14 12:47:51;;;;;;;;;;;;;;;15.97;36.51;95333.13;5104257;28;19923;-87
2023/04/14 12:50:27;;;;;;;;;;;;;;;15.39;38.34;95329.56;5108675;28;20009;-87
2023/04/14 12:52:57;;;;;;;;;;;;;;;15.80;38.73;95327.31;5109486;28;19955;-87
2023/04/14 12:55:26;;;;;;;;;;;;;;;16.11;37.65;95331.31;5111977;28;19949;-88